createdAt,value
2023-01-19T00:00:54.725Z,89.16
2023-01-19T00:03:28.932Z,89.25
2023-01-19T00:05:56.300Z,89.19
2023-01-19T00:08:25.792Z,89.05
2023-01-19T00:10:53.176Z,88.95
2023-01-19T00:13:20.373Z,89.19
2023-01-19T00:15:47.701Z,89.04
2023-01-19T00:18:14.883Z,89.05
2023-01-19T00:20:44.946Z,88.65
2023-01-19T00:23:12.962Z,88.59
2023-01-19T00:25:42.837Z,88.04
2023-01-19T00:28:11.730Z,88.64
2023-01-19T00:30:42.380Z,88.15
2023-01-19T00:33:10.519Z,87.94
2023-01-19T00:35:37.893Z,88.58
2023-01-19T00:38:05.242Z,88.36
2023-01-19T00:40:32.585Z,88.51
2023-01-19T00:43:00.785Z,88.22
2023-01-19T00:45:29.316Z,88.65
2023-01-19T00:47:58.466Z,88.63
2023-01-19T00:50:27.947Z,88.59
2023-01-19T00:52:56.302Z,88.38
2023-01-19T00:55:24.326Z,88.92
2023-01-19T00:57:51.639Z,88.90
2023-01-19T01:00:20.293Z,89.07
2023-01-19T01:02:48.899Z,89.39
2023-01-19T01:05:16.520Z,89.09
2023-01-19T01:07:45.426Z,89.40
2023-01-19T01:10:24.183Z,89.10
2023-01-19T01:12:57.432Z,88.76
2023-01-19T01:15:27.163Z,88.86
2023-01-19T01:17:54.847Z,88.89
2023-01-19T01:20:25.702Z,88.85
2023-01-19T01:22:54.331Z,89.18
2023-01-19T01:25:23.673Z,89.35
2023-01-19T01:27:50.607Z,88.87
2023-01-19T01:30:21.450Z,89.05
2023-01-19T01:32:50.962Z,88.65
2023-01-19T01:35:18.933Z,89.00
2023-01-19T01:37:45.940Z,88.79
2023-01-19T01:40:15.612Z,88.48
2023-01-19T01:42:43.026Z,88.70
2023-01-19T01:45:35.631Z,88.21
2023-01-19T01:48:11.743Z,88.59
2023-01-19T01:51:08.285Z,88.59
2023-01-19T01:53:39.885Z,88.53
2023-01-19T01:56:13.255Z,88.23
2023-01-19T01:58:40.638Z,88.09
2023-01-19T02:01:29.333Z,88.28
2023-01-19T02:03:59.596Z,88.38
2023-01-19T02:06:27.125Z,88.54
2023-01-19T02:09:22.158Z,88.34
2023-01-19T02:12:09.468Z,88.27
2023-01-19T02:14:39.887Z,87.97
2023-01-19T02:17:07.648Z,88.18
2023-01-19T02:19:42.223Z,88.12
2023-01-19T02:22:22.611Z,88.44
2023-01-19T02:24:50.124Z,87.95
2023-01-19T02:27:18.385Z,87.72
2023-01-19T02:29:46.225Z,88.32
2023-01-19T02:32:14.490Z,88.58
2023-01-19T02:34:41.535Z,88.79
2023-01-19T02:37:15.905Z,87.92
2023-01-19T02:39:51.120Z,87.10
2023-01-19T02:42:21.377Z,87.68
2023-01-19T02:44:52.717Z,88.22
2023-01-19T02:47:20.471Z,88.09
2023-01-19T02:50:02.117Z,89.15
2023-01-19T02:52:29.366Z,89.71
2023-01-19T02:55:10.778Z,89.71
2023-01-19T02:57:56.672Z,89.80
2023-01-19T03:00:52.148Z,89.94
2023-01-19T03:03:46.393Z,90.37
2023-01-19T03:06:30.594Z,90.35
2023-01-19T03:09:04.564Z,90.02
2023-01-19T03:11:37.157Z,90.19
2023-01-19T03:14:11.610Z,89.95
2023-01-19T03:16:48.695Z,89.94
2023-01-19T03:19:31.702Z,89.99
2023-01-19T03:22:03.880Z,90.19
2023-01-19T03:24:37.935Z,89.99
2023-01-19T03:27:10.796Z,90.44
2023-01-19T03:29:42.433Z,91.34
2023-01-19T03:32:17.606Z,92.18
2023-01-19T03:34:48.140Z,92.37
2023-01-19T03:37:19.419Z,92.62
2023-01-19T03:39:47.397Z,92.99
2023-01-19T03:42:18.235Z,93.40
2023-01-19T03:44:50.629Z,93.55
2023-01-19T03:47:20.407Z,92.96
2023-01-19T03:49:51.016Z,93.08
2023-01-19T03:52:18.248Z,94.01
2023-01-19T03:54:45.675Z,93.89
2023-01-19T03:57:13.037Z,94.30
2023-01-19T03:59:41.435Z,94.25
2023-01-19T04:02:08.530Z,94.01
2023-01-19T04:04:40.008Z,94.44
2023-01-19T04:07:10.120Z,94.50
2023-01-19T04:09:37.813Z,94.79
2023-01-19T04:12:05.519Z,94.73
2023-01-19T04:14:33.043Z,94.48
2023-01-19T04:17:00.347Z,94.90
2023-01-19T04:19:29.060Z,94.96
2023-01-19T04:21:56.961Z,94.76
2023-01-19T04:24:24.261Z,94.88
2023-01-19T04:26:54.083Z,95.02
2023-01-19T04:29:21.551Z,94.75
2023-01-19T04:37:29.304Z,94.90
2023-01-19T04:40:02.568Z,94.49
2023-01-19T04:42:30.975Z,93.84
2023-01-19T04:44:59.117Z,93.76
2023-01-19T04:47:27.589Z,93.96
2023-01-19T04:49:54.714Z,93.58
2023-01-19T04:52:22.055Z,94.00
2023-01-19T04:54:50.158Z,93.62
2023-01-19T04:57:17.559Z,94.03
2023-01-19T04:59:44.617Z,93.82
2023-01-19T05:02:14.611Z,93.91
2023-01-19T05:04:54.073Z,94.00
2023-01-19T05:07:21.577Z,94.36
2023-01-19T05:09:48.849Z,94.46
2023-01-19T05:12:16.258Z,94.26
2023-01-19T05:14:43.465Z,94.96
2023-01-19T05:17:14.181Z,95.25
2023-01-19T05:19:41.602Z,94.23
2023-01-19T05:22:09.098Z,93.02
2023-01-19T05:24:36.139Z,93.72
2023-01-19T05:27:04.142Z,93.85
2023-01-19T05:29:31.291Z,93.65
2023-01-19T05:31:58.715Z,94.01
2023-01-19T05:34:25.689Z,93.86
2023-01-19T05:36:56.918Z,94.51
2023-01-19T05:39:24.137Z,94.96
2023-01-19T05:41:52.944Z,95.07
2023-01-19T05:44:22.481Z,95.30
2023-01-19T05:46:49.952Z,95.26
2023-01-19T05:49:24.399Z,94.92
2023-01-19T05:51:54.255Z,94.73
2023-01-19T05:54:27.609Z,95.17
2023-01-19T06:00:30.786Z,95.93
2023-01-19T06:05:48.213Z,95.52
2023-01-19T06:08:18.857Z,95.48
2023-01-19T06:13:31.518Z,95.32
2023-01-19T06:16:00.399Z,95.26
2023-01-19T06:18:28.771Z,95.25
2023-01-19T06:21:06.014Z,95.04
2023-01-19T06:23:38.115Z,94.92
2023-01-19T06:26:06.571Z,95.31
2023-01-19T06:28:37.235Z,95.22
2023-01-19T06:31:05.423Z,95.97
2023-01-19T06:33:34.566Z,95.90
2023-01-19T06:36:04.908Z,95.50
2023-01-19T06:38:33.085Z,95.93
2023-01-19T06:41:00.180Z,95.51
2023-01-19T06:43:33.502Z,96.00
2023-01-19T06:46:02.660Z,95.79
2023-01-19T06:48:30.679Z,95.89
2023-01-19T06:50:59.669Z,96.05
2023-01-19T06:53:28.444Z,96.33
2023-01-19T06:56:01.994Z,95.85
2023-01-19T06:58:31.917Z,96.10
2023-01-19T07:01:06.399Z,96.24
2023-01-19T07:03:35.856Z,96.00
2023-01-19T07:06:03.304Z,96.21
2023-01-19T07:08:30.644Z,96.04
2023-01-19T07:11:25.949Z,96.19
2023-01-19T07:13:55.769Z,95.96
2023-01-19T07:16:30.513Z,95.93
2023-01-19T07:18:57.834Z,95.85
2023-01-19T07:21:29.172Z,95.50
2023-01-19T07:23:56.674Z,95.28
2023-01-19T07:26:28.124Z,94.71
2023-01-19T07:28:56.552Z,94.17
2023-01-19T07:31:23.640Z,93.48
2023-01-19T07:33:51.233Z,93.70
2023-01-19T07:36:19.888Z,93.52
2023-01-19T07:38:47.090Z,93.57
2023-01-19T07:41:16.701Z,93.99
2023-01-19T07:43:44.044Z,94.22
2023-01-19T07:46:11.196Z,94.10
2023-01-19T07:48:38.769Z,94.23
2023-01-19T07:51:11.718Z,94.11
2023-01-19T07:53:42.062Z,94.02
2023-01-19T07:56:11.985Z,93.20
2023-01-19T07:58:39.945Z,93.52
2023-01-19T08:01:09.885Z,93.09
2023-01-19T08:06:28.945Z,92.57
2023-01-19T08:08:56.527Z,92.24
2023-01-19T08:11:23.537Z,91.82
2023-01-19T08:13:51.157Z,91.07
2023-01-19T08:16:18.130Z,89.82
2023-01-19T08:18:46.192Z,89.21
2023-01-19T08:21:13.300Z,88.94
2023-01-19T08:23:40.790Z,88.49
2023-01-19T08:26:32.885Z,88.20
2023-01-19T08:29:05.491Z,87.05
2023-01-19T08:31:39.937Z,86.17
2023-01-19T08:34:11.040Z,85.56
2023-01-19T08:36:38.808Z,85.37
2023-01-19T08:39:06.328Z,84.57
2023-01-19T08:41:33.996Z,83.87
2023-01-19T08:44:03.633Z,83.81
2023-01-19T08:46:32.944Z,83.51
2023-01-19T08:49:00.449Z,83.36
2023-01-19T08:51:29.616Z,83.37
2023-01-19T08:53:57.213Z,83.00
2023-01-19T08:56:24.654Z,82.91
2023-01-19T08:59:08.203Z,82.26
2023-01-19T09:01:39.290Z,82.20
2023-01-19T09:04:06.859Z,81.49
2023-01-19T09:06:34.258Z,81.36
2023-01-19T09:14:16.495Z,79.77
2023-01-19T09:16:43.785Z,79.21
2023-01-19T09:19:11.342Z,79.06
2023-01-19T09:21:38.625Z,78.08
2023-01-19T09:24:14.749Z,77.62
2023-01-19T09:26:41.949Z,76.75
2023-01-19T09:29:11.710Z,76.82
2023-01-19T09:31:41.144Z,76.37
2023-01-19T09:34:08.635Z,75.90
2023-01-19T09:36:37.407Z,75.61
2023-01-19T09:39:06.560Z,75.49
2023-01-19T09:41:52.283Z,72.81
2023-01-19T09:44:28.347Z,66.94
2023-01-19T09:46:55.638Z,60.10
2023-01-19T09:49:33.776Z,56.56
2023-01-19T09:52:00.952Z,54.00
2023-01-19T09:54:44.795Z,51.30
2023-01-19T09:57:17.737Z,49.19
2023-01-19T09:59:49.371Z,47.86
2023-01-19T10:02:26.626Z,46.50
2023-01-19T10:05:21.488Z,44.27
2023-01-19T10:08:08.662Z,43.82
2023-01-19T10:10:39.014Z,45.11
2023-01-19T10:13:24.299Z,46.46
2023-01-19T10:16:20.669Z,46.62
2023-01-19T10:18:51.928Z,47.23
2023-01-19T10:21:35.564Z,45.45
2023-01-19T10:24:11.256Z,45.82
2023-01-19T10:26:44.196Z,45.44
2023-01-19T10:29:36.413Z,46.78
2023-01-19T10:32:13.055Z,48.46
2023-01-19T10:34:41.729Z,50.06
2023-01-19T10:37:17.909Z,48.95
2023-01-19T10:39:54.865Z,47.73
2023-01-19T10:42:22.386Z,48.10
2023-01-19T10:44:50.511Z,49.95
2023-01-19T10:47:24.730Z,50.64
2023-01-19T10:49:52.604Z,49.80
2023-01-19T10:52:29.412Z,49.17
2023-01-19T10:54:57.563Z,50.03
2023-01-19T10:57:31.811Z,51.22
2023-01-19T10:59:59.343Z,51.90
2023-01-19T11:08:30.657Z,52.19
2023-01-19T11:11:08.409Z,54.46
2023-01-19T11:13:37.113Z,56.40
2023-01-19T11:16:23.320Z,57.56
2023-01-19T11:18:56.448Z,58.12
2023-01-19T11:21:28.064Z,58.52
2023-01-19T11:24:05.487Z,59.31
2023-01-19T11:26:48.291Z,59.52
2023-01-19T11:29:20.373Z,59.75
2023-01-19T11:31:50.631Z,60.58
2023-01-19T11:34:42.970Z,60.30
2023-01-19T11:37:16.266Z,60.42
2023-01-19T11:39:52.779Z,59.82
2023-01-19T11:42:20.629Z,59.66
2023-01-19T11:45:14.503Z,59.54
2023-01-19T11:47:47.149Z,60.26
2023-01-19T11:50:40.038Z,59.98
2023-01-19T11:53:16.979Z,56.17
2023-01-19T11:56:04.844Z,52.89
2023-01-19T12:01:28.089Z,47.86
2023-01-19T12:04:01.384Z,45.75
2023-01-19T12:06:38.636Z,44.86
2023-01-19T12:09:13.237Z,43.10
2023-01-19T12:11:57.973Z,46.23
2023-01-19T12:14:48.316Z,49.78
2023-01-19T12:17:25.946Z,51.13
2023-01-19T12:20:31.063Z,49.94
2023-01-19T12:23:37.096Z,47.60
2023-01-19T12:26:17.451Z,48.58
2023-01-19T12:29:01.477Z,48.64
2023-01-19T12:31:29.023Z,48.76
2023-01-19T12:34:25.384Z,47.58
2023-01-19T12:36:59.029Z,44.49
2023-01-19T12:39:26.691Z,45.39
2023-01-19T12:42:27.006Z,45.87
2023-01-19T12:45:17.314Z,47.25
2023-01-19T12:47:53.016Z,47.85
2023-01-19T12:50:25.758Z,47.72
2023-01-19T12:52:58.601Z,45.59
2023-01-19T12:55:37.179Z,44.86
2023-01-19T12:58:04.431Z,44.08
2023-01-19T13:00:38.737Z,43.19
2023-01-19T13:03:25.707Z,45.22
2023-01-19T13:05:55.309Z,47.36
2023-01-19T13:08:29.898Z,49.02
2023-01-19T13:11:00.520Z,50.42
2023-01-19T13:13:27.974Z,50.77
2023-01-19T13:15:56.630Z,51.21
2023-01-19T13:18:31.644Z,51.97
2023-01-19T13:21:10.360Z,53.13
2023-01-19T13:24:02.264Z,53.43
2023-01-19T13:32:39.722Z,55.07
2023-01-19T13:35:20.337Z,55.46
2023-01-19T13:37:48.898Z,55.52
2023-01-19T13:40:25.590Z,56.13
2023-01-19T13:42:54.407Z,56.13
2023-01-19T13:48:22.338Z,56.90
2023-01-19T13:51:02.453Z,56.68
2023-01-19T13:53:30.588Z,56.97
2023-01-19T13:56:22.197Z,57.83
2023-01-19T13:58:59.312Z,58.34
2023-01-19T14:01:29.547Z,58.48
2023-01-19T14:03:57.517Z,58.79
2023-01-19T14:06:33.789Z,59.36
2023-01-19T14:09:08.168Z,59.82
2023-01-19T14:11:38.240Z,60.29
2023-01-19T14:14:05.227Z,60.79
2023-01-19T14:16:35.271Z,60.55
2023-01-19T14:19:04.791Z,61.37
2023-01-19T14:21:40.716Z,61.39
2023-01-19T14:24:17.481Z,62.04
2023-01-19T14:26:54.032Z,62.15
2023-01-19T14:29:33.252Z,62.15
2023-01-19T14:32:02.918Z,62.56
2023-01-19T14:34:48.108Z,63.02
2023-01-19T14:37:29.398Z,63.20
2023-01-19T14:40:17.692Z,63.36
2023-01-19T14:42:52.627Z,63.81
2023-01-19T14:45:21.067Z,64.64
2023-01-19T14:48:01.211Z,64.87
2023-01-19T14:50:33.221Z,64.96
2023-01-19T14:53:08.624Z,65.77
2023-01-19T14:55:39.996Z,66.40
2023-01-19T14:58:15.167Z,66.64
2023-01-19T15:00:46.614Z,67.34
2023-01-19T15:03:14.857Z,67.85
2023-01-19T15:05:50.429Z,68.24
2023-01-19T15:08:24.733Z,68.82
2023-01-19T15:10:51.872Z,69.46
2023-01-19T15:13:25.673Z,70.53
2023-01-19T15:15:55.430Z,71.11
2023-01-19T15:18:26.680Z,71.59
2023-01-19T15:21:05.233Z,71.86
2023-01-19T15:23:33.483Z,72.70
2023-01-19T15:26:07.893Z,73.01
2023-01-19T15:28:35.331Z,73.96
2023-01-19T15:31:05.534Z,74.45
2023-01-19T15:36:54.535Z,74.90
2023-01-19T15:39:26.591Z,75.84
2023-01-19T15:41:56.686Z,76.21
2023-01-19T15:44:24.181Z,76.74
2023-01-19T15:49:51.703Z,77.23
2023-01-19T15:52:24.525Z,77.72
2023-01-19T15:54:59.675Z,77.66
2023-01-19T15:57:27.259Z,77.68
2023-01-19T15:59:54.849Z,77.93
2023-01-19T16:02:23.469Z,78.00
2023-01-19T16:04:50.636Z,78.42
2023-01-19T16:07:20.201Z,78.57
2023-01-19T16:09:52.319Z,78.67
2023-01-19T16:12:20.105Z,79.06
2023-01-19T16:14:47.175Z,79.19
2023-01-19T16:17:14.638Z,79.58
2023-01-19T16:19:41.797Z,79.53
2023-01-19T16:22:12.261Z,79.63
2023-01-19T16:24:39.556Z,79.73
2023-01-19T16:27:08.940Z,79.74
2023-01-19T16:29:36.431Z,80.36
2023-01-19T16:32:12.604Z,80.81
2023-01-19T16:34:39.815Z,80.55
2023-01-19T16:37:07.743Z,80.61
2023-01-19T16:39:34.860Z,80.87
2023-01-19T16:42:02.632Z,80.59
2023-01-19T16:44:30.627Z,80.67
2023-01-19T16:46:58.126Z,80.53
2023-01-19T16:49:28.523Z,80.58
2023-01-19T16:51:58.685Z,80.76
2023-01-19T16:54:28.664Z,80.35
2023-01-19T16:56:57.768Z,80.67
2023-01-19T16:59:29.237Z,80.22
2023-01-19T17:01:57.949Z,80.20
2023-01-19T17:04:26.566Z,79.93
2023-01-19T17:06:55.162Z,80.18
2023-01-19T17:09:22.380Z,80.47
2023-01-19T17:11:56.571Z,80.40
2023-01-19T17:14:24.774Z,80.28
2023-01-19T17:16:53.220Z,80.57
2023-01-19T17:19:22.325Z,80.24
2023-01-19T17:21:50.089Z,80.75
2023-01-19T17:24:22.562Z,80.15
2023-01-19T17:26:50.075Z,80.36
2023-01-19T17:29:17.651Z,80.48
2023-01-19T17:31:46.037Z,80.78
2023-01-19T17:37:02.956Z,80.64
2023-01-19T17:39:35.696Z,80.61
2023-01-19T17:42:06.253Z,80.79
2023-01-19T17:44:37.376Z,80.15
2023-01-19T17:47:05.088Z,80.44
2023-01-19T17:49:34.765Z,80.62
2023-01-19T17:52:02.376Z,80.60
2023-01-19T17:54:29.409Z,80.76
2023-01-19T17:56:57.007Z,80.47
2023-01-19T17:59:30.579Z,80.54
2023-01-19T18:01:58.964Z,80.99
2023-01-19T18:04:26.128Z,80.89
2023-01-19T18:06:57.598Z,81.01
2023-01-19T18:09:24.732Z,80.96
2023-01-19T18:11:52.357Z,80.80
2023-01-19T18:14:19.840Z,80.90
2023-01-19T18:17:06.421Z,81.00
2023-01-19T18:19:35.194Z,81.45
2023-01-19T18:22:02.505Z,81.53
2023-01-19T18:24:30.492Z,81.76
2023-01-19T18:27:00.106Z,81.58
2023-01-19T18:29:42.947Z,81.95
2023-01-19T18:32:11.130Z,82.06
2023-01-19T18:34:39.714Z,81.94
2023-01-19T18:37:07.459Z,82.23
2023-01-19T18:39:34.561Z,82.59
2023-01-19T18:42:02.028Z,82.30
2023-01-19T18:44:29.105Z,82.65
2023-01-19T18:46:56.900Z,82.61
2023-01-19T18:49:23.951Z,82.30
2023-01-19T18:51:51.385Z,82.03
2023-01-19T18:54:18.368Z,82.06
2023-01-19T18:56:46.377Z,82.25
2023-01-19T18:59:13.589Z,82.00
2023-01-19T19:01:41.550Z,82.35
2023-01-19T19:04:16.972Z,82.96
2023-01-19T19:10:24.478Z,83.09
2023-01-19T19:13:07.839Z,82.81
2023-01-19T19:15:43.231Z,82.88
2023-01-19T19:21:14.585Z,83.20
2023-01-19T19:23:42.506Z,83.33
2023-01-19T19:26:40.917Z,83.38
2023-01-19T19:29:15.449Z,83.70
2023-01-19T19:31:43.088Z,83.44
2023-01-19T19:40:16.979Z,84.06
2023-01-19T19:51:28.282Z,84.48
2023-01-19T19:53:59.082Z,84.51
2023-01-19T19:56:30.597Z,84.93
2023-01-19T19:59:03.319Z,84.84
2023-01-19T20:01:33.721Z,84.48
2023-01-19T20:04:08.938Z,84.38
2023-01-19T20:06:49.016Z,84.08
2023-01-19T20:09:18.236Z,84.17
2023-01-19T20:11:48.056Z,83.93
2023-01-19T20:14:16.395Z,83.79
2023-01-19T20:16:43.915Z,83.66
2023-01-19T20:19:12.219Z,83.47
2023-01-19T20:21:44.493Z,83.60
2023-01-19T20:24:18.715Z,83.63
2023-01-19T20:26:58.194Z,83.19
2023-01-19T20:29:28.117Z,83.40
2023-01-19T20:31:56.864Z,83.36
2023-01-19T20:34:29.522Z,83.14
2023-01-19T20:36:58.251Z,83.49
2023-01-19T20:39:26.056Z,83.76
2023-01-19T20:41:53.591Z,83.70
2023-01-19T20:44:23.569Z,83.77
2023-01-19T20:46:50.956Z,83.69
2023-01-19T20:49:18.807Z,83.72
2023-01-19T20:51:47.064Z,83.55
2023-01-19T20:54:17.538Z,83.07
2023-01-19T20:56:44.910Z,82.84
2023-01-19T20:59:13.609Z,83.17
2023-01-19T21:01:41.874Z,83.06
2023-01-19T21:04:12.803Z,83.31
2023-01-19T21:06:42.585Z,83.06
2023-01-19T21:09:11.141Z,83.22
2023-01-19T21:11:40.024Z,82.92
2023-01-19T21:14:12.250Z,82.98
2023-01-19T21:16:47.756Z,83.30
2023-01-19T21:19:35.743Z,83.19
2023-01-19T21:22:03.514Z,83.03
2023-01-19T21:27:34.814Z,83.51
2023-01-19T21:30:05.880Z,83.10
2023-01-19T21:32:34.474Z,83.36
2023-01-19T21:37:55.548Z,82.67
2023-01-19T21:40:23.836Z,83.08
2023-01-19T21:42:53.082Z,82.84
2023-01-19T21:45:21.135Z,83.15
2023-01-19T21:47:48.229Z,83.20
2023-01-19T21:50:16.445Z,82.96
2023-01-19T21:52:44.365Z,83.28
2023-01-19T21:55:12.238Z,82.98
2023-01-19T21:57:41.765Z,83.10
2023-01-19T22:00:11.754Z,82.83
2023-01-19T22:02:39.341Z,82.67
2023-01-19T22:05:07.273Z,82.48
2023-01-19T22:07:36.878Z,82.63
2023-01-19T22:10:06.333Z,82.65
2023-01-19T22:12:33.469Z,82.13
2023-01-19T22:15:00.813Z,82.07
2023-01-19T22:17:28.178Z,82.10
2023-01-19T22:19:58.274Z,81.73
2023-01-19T22:22:25.465Z,81.78
2023-01-19T22:24:52.818Z,81.79
2023-01-19T22:27:19.930Z,81.85
2023-01-19T22:29:49.841Z,81.99
2023-01-19T22:32:16.987Z,81.64
2023-01-19T22:34:44.451Z,81.92
2023-01-19T22:37:11.431Z,81.92
2023-01-19T22:39:38.932Z,81.43
2023-01-19T22:42:06.194Z,81.65
2023-01-19T22:44:35.224Z,81.63
2023-01-19T22:47:02.282Z,81.34
2023-01-19T22:49:29.819Z,81.48
2023-01-19T22:51:57.445Z,81.30
2023-01-19T22:54:24.761Z,81.01
2023-01-19T22:56:51.828Z,81.29
2023-01-19T22:59:19.185Z,81.21
2023-01-19T23:01:47.320Z,81.50
2023-01-19T23:04:16.116Z,81.13
2023-01-19T23:06:47.157Z,81.36
2023-01-19T23:09:14.851Z,81.85
2023-01-19T23:11:44.928Z,81.98
2023-01-19T23:14:17.813Z,82.27
2023-01-19T23:16:47.755Z,82.28
2023-01-19T23:19:19.886Z,82.36
2023-01-19T23:21:51.023Z,82.83
2023-01-19T23:24:24.905Z,82.99
2023-01-19T23:26:52.343Z,83.18
2023-01-19T23:29:19.864Z,82.91
2023-01-19T23:31:49.586Z,83.43
2023-01-19T23:34:16.848Z,83.43
2023-01-19T23:36:45.976Z,83.53
2023-01-19T23:39:19.153Z,83.77
2023-01-19T23:41:47.689Z,84.05
2023-01-19T23:44:17.416Z,83.76
2023-01-19T23:46:45.644Z,83.67
2023-01-19T23:49:13.338Z,83.77
2023-01-19T23:51:41.623Z,83.79
2023-01-19T23:54:09.390Z,84.07
2023-01-19T23:56:38.277Z,84.09
2023-01-19T23:59:08.328Z,84.26
